Time;durP1;ratioP1;P1;durP2;ratioP2;P2;SDS_P1;SDS_P2;PMS_P1;PMS_P2;Temp;Humidity;BMP_temperature;BMP_pressure;BME280_temperature;BME280_humidity;BME280_pressure;Samples;Min_cycle;Max_cycle;Signal;HPM_P1;HPM_P2
2021/12/30 00:00:57;;;;;;;47.50;8.75;;;;;;;;;;4899948;29;20417;-76
2021/12/30 00:03:24;;;;;;;50.87;9.40;;;;;;;;;;4897590;29;20449;-77
2021/12/30 00:05:52;;;;;;;52.00;8.82;;;;;;;;;;4884425;29;20961;-77
2021/12/30 00:08:18;;;;;;;56.55;9.95;;;;;;;;;;4894824;29;20423;-77
2021/12/30 00:10:44;;;;;;;46.92;9.32;;;;;;;;;;4897846;29;20422;-77
2021/12/30 00:13:10;;;;;;;49.90;9.65;;;;;;;;;;4898259;29;20426;-77
2021/12/30 00:15:37;;;;;;;48.53;9.27;;;;;;;;;;4885491;29;20441;-77
2021/12/30 00:18:04;;;;;;;54.42;9.18;;;;;;;;;;4909360;29;20427;-77
2021/12/30 00:20:30;;;;;;;47.65;9.55;;;;;;;;;;4872944;29;20437;-77
2021/12/30 00:22:56;;;;;;;52.03;9.83;;;;;;;;;;4891314;29;20417;-77
2021/12/30 00:25:23;;;;;;;48.92;9.27;;;;;;;;;;4892604;29;20510;-77
2021/12/30 00:27:49;;;;;;;52.23;9.93;;;;;;;;;;4885038;29;20609;-77
2021/12/30 00:30:15;;;;;;;55.95;9.40;;;;;;;;;;4906613;29;20869;-77
2021/12/30 00:32:41;;;;;;;49.40;9.40;;;;;;;;;;4900913;29;20421;-76
2021/12/30 00:35:07;;;;;;;55.22;9.45;;;;;;;;;;4916067;29;20500;-76
2021/12/30 00:37:33;;;;;;;60.13;9.25;;;;;;;;;;4898346;29;20415;-76
2021/12/30 00:39:59;;;;;;;49.03;9.85;;;;;;;;;;4891176;29;20469;-76
2021/12/30 00:42:26;;;;;;;50.15;8.63;;;;;;;;;;4891576;29;20906;-76
2021/12/30 00:44:52;;;;;;;51.25;8.65;;;;;;;;;;4904482;29;20499;-76
2021/12/30 00:47:18;;;;;;;53.58;9.57;;;;;;;;;;4895598;29;20420;-76
2021/12/30 00:49:44;;;;;;;55.60;8.90;;;;;;;;;;4895599;29;20429;-76
2021/12/30 00:52:10;;;;;;;47.03;9.02;;;;;;;;;;4898932;29;20484;-76
2021/12/30 00:54:36;;;;;;;50.47;8.88;;;;;;;;;;4901355;29;20423;-76
2021/12/30 00:57:02;;;;;;;45.05;8.95;;;;;;;;;;4913685;29;20755;-76
2021/12/30 00:59:28;;;;;;;46.83;8.90;;;;;;;;;;4908485;29;20468;-76
2021/12/30 01:01:54;;;;;;;49.10;9.40;;;;;;;;;;4901059;29;20935;-76
2021/12/30 01:04:21;;;;;;;49.60;8.90;;;;;;;;;;4906642;29;20421;-76
2021/12/30 01:06:47;;;;;;;46.72;9.30;;;;;;;;;;4899650;29;20477;-76
2021/12/30 01:09:14;;;;;;;48.33;9.73;;;;;;;;;;4885414;29;20421;-76
2021/12/30 01:11:40;;;;;;;51.83;9.73;;;;;;;;;;4901526;29;20421;-76
2021/12/30 01:14:19;;;;;;;45.88;9.00;;;;;;;;;;4894608;29;20425;-76
2021/12/30 01:16:48;;;;;;;44.58;8.73;;;;;;;;;;4884561;29;20494;-76
2021/12/30 01:19:23;;;;;;;45.45;8.40;;;;;;;;;;4886718;29;20431;-76
2021/12/30 01:21:51;;;;;;;44.50;9.23;;;;;;;;;;4885504;29;20442;-76
2021/12/30 01:24:17;;;;;;;54.95;9.50;;;;;;;;;;4912312;29;20726;-76
2021/12/30 01:26:43;;;;;;;55.83;10.57;;;;;;;;;;4909768;29;20474;-76
2021/12/30 01:29:09;;;;;;;48.17;9.93;;;;;;;;;;4874388;29;20430;-76
2021/12/30 01:31:35;;;;;;;45.03;9.05;;;;;;;;;;4869541;29;20939;-77
2021/12/30 01:34:01;;;;;;;50.17;9.55;;;;;;;;;;4915222;29;20781;-77
2021/12/30 01:36:27;;;;;;;47.65;9.95;;;;;;;;;;4900285;29;20413;-77
2021/12/30 01:38:55;;;;;;;48.72;10.02;;;;;;;;;;4886474;29;21036;-77
2021/12/30 01:41:21;;;;;;;46.20;9.45;;;;;;;;;;4876436;29;20899;-77
2021/12/30 01:43:48;;;;;;;50.22;9.40;;;;;;;;;;4892833;29;20426;-77
2021/12/30 01:46:15;;;;;;;49.05;9.90;;;;;;;;;;4900155;29;20448;-77
2021/12/30 01:48:42;;;;;;;49.53;8.68;;;;;;;;;;4895593;29;20984;-77
2021/12/30 01:51:08;;;;;;;38.03;8.80;;;;;;;;;;4890848;29;20453;-77
2021/12/30 01:53:35;;;;;;;46.60;8.82;;;;;;;;;;4884716;29;20435;-77
2021/12/30 01:56:01;;;;;;;49.38;8.80;;;;;;;;;;4903037;29;20504;-77
2021/12/30 01:58:27;;;;;;;46.97;9.20;;;;;;;;;;4898999;29;20472;-77
2021/12/30 02:00:53;;;;;;;49.78;8.95;;;;;;;;;;4899460;29;20543;-76
2021/12/30 02:03:20;;;;;;;50.72;9.23;;;;;;;;;;4880388;29;20433;-77
2021/12/30 02:05:47;;;;;;;52.53;9.38;;;;;;;;;;4896819;29;20425;-77
2021/12/30 02:08:15;;;;;;;53.38;9.35;;;;;;;;;;4878893;29;20449;-77
2021/12/30 02:10:42;;;;;;;52.17;9.77;;;;;;;;;;4899168;29;20476;-77
2021/12/30 02:13:09;;;;;;;43.15;9.35;;;;;;;;;;4914530;29;20784;-77
2021/12/30 02:15:35;;;;;;;49.45;9.25;;;;;;;;;;4871583;29;20490;-77
2021/12/30 02:18:02;;;;;;;50.10;10.00;;;;;;;;;;4899325;29;20940;-77
2021/12/30 02:20:47;;;;;;;61.43;9.97;;;;;;;;;;4891190;29;20801;-77
2021/12/30 02:23:17;;;;;;;50.08;10.18;;;;;;;;;;4917339;29;20481;-77
2021/12/30 02:25:44;;;;;;;47.10;9.23;;;;;;;;;;4899346;29;20448;-77
2021/12/30 02:28:10;;;;;;;45.05;9.30;;;;;;;;;;4880739;29;20459;-77
2021/12/30 02:30:37;;;;;;;46.42;9.70;;;;;;;;;;4889618;29;20416;-77
2021/12/30 02:33:03;;;;;;;47.47;9.70;;;;;;;;;;4899764;29;20441;-77
2021/12/30 02:35:29;;;;;;;55.00;10.57;;;;;;;;;;4888587;29;20425;-77
2021/12/30 02:37:55;;;;;;;49.55;10.43;;;;;;;;;;4898256;29;20449;-77
2021/12/30 02:40:26;;;;;;;49.70;10.48;;;;;;;;;;4899290;29;20507;-77
2021/12/30 02:42:54;;;;;;;48.25;10.63;;;;;;;;;;4898592;29;20493;-77
2021/12/30 02:45:20;;;;;;;55.65;11.20;;;;;;;;;;4898619;29;20426;-77
2021/12/30 02:47:47;;;;;;;48.97;11.10;;;;;;;;;;4883747;29;20444;-77
2021/12/30 02:50:13;;;;;;;54.47;11.93;;;;;;;;;;4896193;29;20413;-77
2021/12/30 02:52:39;;;;;;;61.17;11.73;;;;;;;;;;4896813;29;20421;-77
2021/12/30 02:55:05;;;;;;;55.13;11.88;;;;;;;;;;4900261;29;20423;-76
2021/12/30 02:57:32;;;;;;;58.00;12.45;;;;;;;;;;4894726;29;20419;-77
2021/12/30 02:59:58;;;;;;;56.83;13.00;;;;;;;;;;4874301;29;21626;-77
2021/12/30 03:02:24;;;;;;;62.72;13.52;;;;;;;;;;4898241;29;20449;-77
2021/12/30 03:04:50;;;;;;;57.10;13.38;;;;;;;;;;4880352;29;20415;-77
2021/12/30 03:07:18;;;;;;;56.85;14.20;;;;;;;;;;4901441;29;20422;-77
2021/12/30 03:09:47;;;;;;;64.45;14.82;;;;;;;;;;4880758;29;20439;-76
2021/12/30 03:12:13;;;;;;;61.63;15.65;;;;;;;;;;4882467;29;20421;-76
2021/12/30 03:14:40;;;;;;;70.57;16.33;;;;;;;;;;4893197;29;20425;-77
2021/12/30 03:17:06;;;;;;;75.05;17.27;;;;;;;;;;4892032;29;20435;-76
2021/12/30 03:19:33;;;;;;;68.55;16.05;;;;;;;;;;4904807;29;20501;-76
2021/12/30 03:21:59;;;;;;;66.75;17.55;;;;;;;;;;4897549;29;20476;-76
2021/12/30 03:24:25;;;;;;;65.72;17.23;;;;;;;;;;4880329;29;20910;-76
2021/12/30 03:26:51;;;;;;;70.47;16.92;;;;;;;;;;4898068;29;20419;-76
2021/12/30 03:29:17;;;;;;;71.78;17.13;;;;;;;;;;4866650;29;20419;-76
2021/12/30 03:31:43;;;;;;;69.57;17.67;;;;;;;;;;4877687;29;20430;-76
2021/12/30 03:34:10;;;;;;;68.68;18.35;;;;;;;;;;4908762;29;20427;-76
2021/12/30 03:36:37;;;;;;;68.15;16.90;;;;;;;;;;4882777;29;20424;-76
2021/12/30 03:39:04;;;;;;;69.60;16.60;;;;;;;;;;4897797;29;20445;-76
2021/12/30 03:41:30;;;;;;;71.32;16.65;;;;;;;;;;4910352;29;20411;-76
2021/12/30 03:43:57;;;;;;;72.67;16.83;;;;;;;;;;4896309;29;20477;-76
2021/12/30 03:46:24;;;;;;;62.85;16.23;;;;;;;;;;4897015;29;20498;-77
2021/12/30 03:48:50;;;;;;;72.15;16.50;;;;;;;;;;4892720;29;20417;-76
2021/12/30 03:51:21;;;;;;;65.43;16.83;;;;;;;;;;4898186;29;20500;-76
2021/12/30 03:53:49;;;;;;;73.60;16.23;;;;;;;;;;4911550;29;20514;-77
2021/12/30 03:56:16;;;;;;;68.57;15.63;;;;;;;;;;4863543;29;20501;-76
2021/12/30 03:58:43;;;;;;;69.37;16.47;;;;;;;;;;4895584;29;20523;-76
2021/12/30 04:01:11;;;;;;;65.65;15.73;;;;;;;;;;4897453;29;20782;-77
2021/12/30 04:03:37;;;;;;;73.55;16.92;;;;;;;;;;4893016;29;20419;-76
2021/12/30 04:06:03;;;;;;;69.30;18.70;;;;;;;;;;4898308;29;20770;-77
2021/12/30 04:08:30;;;;;;;75.63;16.65;;;;;;;;;;4896313;29;20421;-77
2021/12/30 04:10:57;;;;;;;72.07;15.98;;;;;;;;;;4904197;29;20482;-76
2021/12/30 04:13:23;;;;;;;71.93;16.55;;;;;;;;;;4897199;29;20440;-77
2021/12/30 04:15:49;;;;;;;62.57;15.10;;;;;;;;;;4899465;29;20417;-77
2021/12/30 04:18:15;;;;;;;74.93;15.85;;;;;;;;;;4916848;29;20411;-77
2021/12/30 04:20:41;;;;;;;88.20;17.98;;;;;;;;;;4887407;29;20747;-77
2021/12/30 04:23:07;;;;;;;64.97;14.60;;;;;;;;;;4898858;29;20508;-77
2021/12/30 04:25:34;;;;;;;71.97;15.50;;;;;;;;;;4897757;29;20431;-76
2021/12/30 04:28:00;;;;;;;64.35;15.35;;;;;;;;;;4884599;29;20418;-77
2021/12/30 04:30:26;;;;;;;71.17;15.83;;;;;;;;;;4882705;29;20527;-77
2021/12/30 04:32:53;;;;;;;73.40;17.13;;;;;;;;;;4883714;29;20462;-76
2021/12/30 04:35:19;;;;;;;73.82;17.00;;;;;;;;;;4899560;29;20456;-77
2021/12/30 04:37:45;;;;;;;67.32;15.23;;;;;;;;;;4901506;29;20430;-77
2021/12/30 04:40:13;;;;;;;82.63;16.73;;;;;;;;;;4889322;29;20436;-77
2021/12/30 04:42:39;;;;;;;73.40;15.98;;;;;;;;;;4893268;29;20428;-77
2021/12/30 04:45:06;;;;;;;78.95;19.35;;;;;;;;;;4891213;29;20494;-77
2021/12/30 04:47:32;;;;;;;77.33;21.03;;;;;;;;;;4884439;29;20426;-77
2021/12/30 04:49:58;;;;;;;83.80;18.85;;;;;;;;;;4897478;29;20421;-77
2021/12/30 04:52:25;;;;;;;81.28;18.90;;;;;;;;;;4910813;29;20411;-77
2021/12/30 04:54:51;;;;;;;86.28;20.10;;;;;;;;;;4873765;29;20419;-77
2021/12/30 04:57:17;;;;;;;82.13;21.35;;;;;;;;;;4890961;29;20936;-77
2021/12/30 04:59:43;;;;;;;83.80;22.37;;;;;;;;;;4891850;29;20454;-77
2021/12/30 05:02:10;;;;;;;80.03;24.70;;;;;;;;;;4910884;29;20434;-77
2021/12/30 05:04:36;;;;;;;89.53;23.33;;;;;;;;;;4915467;29;20413;-77
2021/12/30 05:07:02;;;;;;;90.18;23.83;;;;;;;;;;4899022;29;20981;-77
2021/12/30 05:09:28;;;;;;;82.57;23.70;;;;;;;;;;4905522;29;20908;-76
2021/12/30 05:11:54;;;;;;;87.57;24.33;;;;;;;;;;4891576;29;20508;-77
2021/12/30 05:14:21;;;;;;;91.82;23.10;;;;;;;;;;4870002;29;20413;-77
2021/12/30 05:16:47;;;;;;;92.60;23.83;;;;;;;;;;4914000;29;20956;-77
2021/12/30 05:19:13;;;;;;;77.88;22.70;;;;;;;;;;4902998;29;20475;-77
2021/12/30 05:21:39;;;;;;;92.15;24.25;;;;;;;;;;4910809;29;20412;-77
2021/12/30 05:24:05;;;;;;;77.55;22.25;;;;;;;;;;4896063;29;20417;-76
2021/12/30 05:26:31;;;;;;;74.50;21.65;;;;;;;;;;4899066;29;20440;-76
2021/12/30 05:28:58;;;;;;;79.68;22.17;;;;;;;;;;4913841;29;20425;-76
2021/12/30 05:31:25;;;;;;;57.78;19.25;;;;;;;;;;4894962;29;20919;-76
2021/12/30 05:33:51;;;;;;;61.78;20.08;;;;;;;;;;4892540;29;20421;-76
2021/12/30 05:36:18;;;;;;;62.28;20.35;;;;;;;;;;4885837;29;20965;-76
2021/12/30 05:38:44;;;;;;;58.33;20.15;;;;;;;;;;4888908;29;20435;-76
2021/12/30 05:41:10;;;;;;;59.17;19.88;;;;;;;;;;4875244;29;20422;-76
2021/12/30 05:43:36;;;;;;;53.92;20.05;;;;;;;;;;4896323;29;20437;-76
2021/12/30 05:46:02;;;;;;;63.97;21.63;;;;;;;;;;4877491;29;20442;-76
2021/12/30 05:48:28;;;;;;;60.45;21.33;;;;;;;;;;4889548;29;20492;-75
2021/12/30 05:50:59;;;;;;;60.13;21.55;;;;;;;;;;4892060;29;21025;-75
2021/12/30 05:53:25;;;;;;;75.47;25.50;;;;;;;;;;4886350;29;20438;-75
2021/12/30 05:55:51;;;;;;;66.47;22.23;;;;;;;;;;4890698;29;20452;-76
2021/12/30 05:58:17;;;;;;;81.50;23.60;;;;;;;;;;4895379;29;20425;-76
2021/12/30 06:00:44;;;;;;;72.65;22.42;;;;;;;;;;4878937;29;20490;-76
2021/12/30 06:03:10;;;;;;;87.85;26.35;;;;;;;;;;4891882;29;20416;-75
2021/12/30 06:05:36;;;;;;;75.45;23.00;;;;;;;;;;4903535;29;20952;-76
2021/12/30 06:08:02;;;;;;;100.25;25.02;;;;;;;;;;4897602;29;20448;-76
2021/12/30 06:10:28;;;;;;;117.32;27.23;;;;;;;;;;4918228;29;20415;-76
2021/12/30 06:12:54;;;;;;;271.98;35.63;;;;;;;;;;4904579;29;20841;-76
2021/12/30 06:15:20;;;;;;;273.03;38.50;;;;;;;;;;4879788;29;20823;-76
2021/12/30 06:17:46;;;;;;;134.30;30.02;;;;;;;;;;4907056;29;20447;-76
2021/12/30 06:20:14;;;;;;;261.60;35.70;;;;;;;;;;4901138;29;20521;-75
2021/12/30 06:22:44;;;;;;;115.68;27.02;;;;;;;;;;4904462;29;20432;-75
2021/12/30 06:25:11;;;;;;;168.77;30.88;;;11.60;99.90;;;;;;4895002;29;20413;-75
2021/12/30 06:27:37;;;;;;;323.50;39.33;;;;;;;;;;4898467;29;20436;-75
2021/12/30 06:30:04;;;;;;;154.75;28.85;;;11.20;99.90;;;;;;4903058;29;20480;-76
2021/12/30 06:32:31;;;;;;;122.10;27.60;;;;;;;;;;4887788;29;20414;-75
2021/12/30 06:34:57;;;;;;;119.15;26.35;;;;;;;;;;4896170;29;20429;-75
2021/12/30 06:37:23;;;;;;;118.05;24.65;;;;;;;;;;4899251;29;20988;-75
2021/12/30 06:39:49;;;;;;;196.00;29.20;;;;;;;;;;4899459;29;20448;-76
2021/12/30 06:42:15;;;;;;;74.22;21.67;;;;;;;;;;4918211;29;20447;-76
2021/12/30 06:44:41;;;;;;;65.93;20.25;;;;;;;;;;4885911;29;20422;-76
2021/12/30 06:47:08;;;;;;;67.90;20.05;;;;;;;;;;4890699;29;20421;-76
2021/12/30 06:49:37;;;;;;;90.10;21.45;;;;;;;;;;4883169;29;20424;-76
2021/12/30 06:52:04;;;;;;;65.43;19.07;;;;;;;;;;4886667;29;20416;-76
2021/12/30 06:54:30;;;;;;;152.90;24.08;;;;;;;;;;4895386;29;20513;-76
2021/12/30 06:56:59;;;;;;;122.75;23.73;;;;;;;;;;4881997;29;20467;-76
2021/12/30 06:59:26;;;;;;;51.80;18.55;;;;;;;;;;4894192;29;20520;-76
2021/12/30 07:01:52;;;;;;;106.22;20.45;;;;;;;;;;4882687;29;20421;-76
2021/12/30 07:04:18;;;;;;;44.83;16.63;;;;;;;;;;4891170;29;20464;-76
2021/12/30 07:06:44;;;;;;;43.08;16.50;;;;;;;;;;4901038;29;20916;-77
2021/12/30 07:09:10;;;;;;;36.58;15.45;;;;;;;;;;4906880;29;20502;-74
2021/12/30 07:11:36;;;;;;;39.03;16.30;;;;;;;;;;4882103;29;20421;-75
2021/12/30 07:14:02;;;;;;;32.75;14.55;;;;;;;;;;4881431;29;20425;-75
2021/12/30 07:16:28;;;;;;;33.70;14.80;;;;;;;;;;4893026;29;20511;-75
2021/12/30 07:18:54;;;;;;;28.43;13.57;;;;;;;;;;4898194;29;20462;-76
2021/12/30 07:21:20;;;;;;;25.42;12.10;;;;;;;;;;4896054;29;20476;-77
2021/12/30 07:23:46;;;;;;;21.10;11.32;;;;;;;;;;4884869;29;20939;-75
2021/12/30 07:26:12;;;;;;;19.45;10.75;;;;;;;;;;4912602;29;20421;-75
2021/12/30 07:28:39;;;;;;;22.80;11.40;;;;;;;;;;4859527;29;20448;-76
2021/12/30 07:31:05;;;;;;;19.02;10.23;;;;;;;;;;4879447;29;20899;-76
2021/12/30 07:33:31;;;;;;;16.42;9.00;;;;;;;;;;4887774;29;20501;-75
2021/12/30 07:35:57;;;;;;;15.95;8.88;;;;;;;;;;4902465;29;20431;-75
2021/12/30 07:38:23;;;;;;;25.27;10.32;;;;;;;;;;4882022;29;20420;-75
2021/12/30 07:40:50;;;;;;;16.03;8.43;;;;;;;;;;4891197;29;20499;-76
2021/12/30 07:43:16;;;;;;;16.70;8.90;;;;;;;;;;4910455;29;20421;-77
2021/12/30 07:45:42;;;;;;;15.38;8.23;;;;;;;;;;4882846;29;20504;-77
2021/12/30 07:48:08;;;;;;;12.35;7.45;;;;;;;;;;4897396;29;20770;-77
2021/12/30 07:50:34;;;;;;;13.87;7.43;;;;;;;;;;4884679;29;20423;-77
2021/12/30 07:53:00;;;;;;;13.85;6.97;;;;;;;;;;4893451;29;20427;-78
2021/12/30 07:55:26;;;;;;;11.55;6.25;;;;;;;;;;4898660;29;20474;-76
2021/12/30 07:57:57;;;;;;;11.40;6.13;;;;;;;;;;4921972;29;20902;-77
2021/12/30 08:00:24;;;;;;;12.32;6.50;;;;;;;;;;4898123;29;20429;-77
2021/12/30 08:02:50;;;;;;;11.25;6.45;;;;;;;;;;4897035;29;20411;-77
2021/12/30 08:05:18;;;;;;;11.63;6.78;;;;;;;;;;4906139;29;20411;-77
2021/12/30 08:07:46;;;;;;;16.58;7.90;;;;;;;;;;4897177;29;20421;-76
2021/12/30 08:10:14;;;;;;;23.75;8.70;;;;;;;;;;4889648;29;20516;-77
2021/12/30 08:12:41;;;;;;;13.30;8.13;;;;;;;;;;4897058;29;20586;-77
2021/12/30 08:15:07;;;;;;;17.35;9.43;;;;;;;;;;4904536;29;20791;-77
2021/12/30 08:17:34;;;;;;;19.33;10.70;;;;;;;;;;4897608;29;20486;-77
2021/12/30 08:20:00;;;;;;;40.08;13.35;;;;;;;;;;4880476;29;20525;-77
2021/12/30 08:22:27;;;;;;;21.45;11.48;;;;;;;;;;4896007;29;20425;-78
2021/12/30 08:24:53;;;;;;;22.20;11.70;;;;;;;;;;4894286;29;20421;-78
2021/12/30 08:27:19;;;;;;;27.23;13.20;;;;;;;;;;4897340;29;20409;-77
2021/12/30 08:29:45;;;;;;;31.63;14.77;;;;;;;;;;4897669;29;20850;-76
2021/12/30 08:32:13;;;;;;;28.98;14.90;;;;;;;;;;4886347;29;20476;-77
2021/12/30 08:34:40;;;;;;;27.10;14.48;;;;;;;;;;4895659;29;20425;-78
2021/12/30 08:37:06;;;;;;;27.80;14.57;;;;;;;;;;4891571;29;20484;-77
2021/12/30 08:39:35;;;;;;;29.17;14.32;;;;;;;;;;4888464;29;20489;-78
2021/12/30 08:42:03;;;;;;;29.90;14.85;;;;;;;;;;4900134;29;20623;-78
2021/12/30 08:44:29;;;;;;;28.05;14.13;;;;;;;;;;4904450;29;20424;-78
2021/12/30 08:46:55;;;;;;;25.33;13.63;;;;;;;;;;4901025;29;20417;-82
2021/12/30 08:49:21;;;;;;;26.48;13.38;;;;;;;;;;4881395;29;20429;-79
2021/12/30 08:51:48;;;;;;;25.67;13.32;;;;;;;;;;4886347;29;20485;-79
2021/12/30 08:54:14;;;;;;;35.15;15.07;;;;;;;;;;4895422;29;20593;-77
2021/12/30 08:56:40;;;;;;;29.52;13.60;;;;;;;;;;4886865;29;20533;-76
2021/12/30 08:59:06;;;;;;;28.25;13.98;;;;;;;;;;4893619;29;20434;-77
2021/12/30 09:01:32;;;;;;;31.50;12.65;;;;;;;;;;4886729;29;20462;-77
2021/12/30 09:03:58;;;;;;;27.75;12.30;;;;;;;;;;4893164;29;20496;-77
2021/12/30 09:06:24;;;;;;;27.87;11.93;;;;;;;;;;4878666;29;20429;-76
2021/12/30 09:08:50;;;;;;;26.83;11.15;;;;;;;;;;4880373;29;20937;-76
2021/12/30 09:11:17;;;;;;;25.70;10.32;;;;;;;;;;4891113;29;20466;-77
2021/12/30 09:13:43;;;;;;;24.58;11.20;;;;;;;;;;4889105;29;20444;-77
2021/12/30 09:16:09;;;;;;;29.48;11.27;;;;;;;;;;4874199;29;20453;-76
2021/12/30 09:18:35;;;;;;;24.92;9.65;;;;;;;;;;4897046;29;20951;-76
2021/12/30 09:21:01;;;;;;;22.95;9.85;;;;;;;;;;4889257;29;20439;-78
2021/12/30 09:23:28;;;;;;;21.88;9.98;;;;;;;;;;4890892;29;20506;-77
2021/12/30 09:25:56;;;;;;;23.50;9.68;;;;;;;;;;4909965;29;20498;-76
2021/12/30 09:28:24;;;;;;;26.05;9.00;;;;;;;;;;4894032;29;20426;-77
2021/12/30 09:30:50;;;;;;;22.58;9.57;;;;;;;;;;4893310;29;20441;-77
2021/12/30 09:33:16;;;;;;;23.33;10.27;;;;;;;;;;4887514;29;20494;-78
2021/12/30 09:35:49;;;;;;;25.58;10.95;;;;;;;;;;4880327;29;20922;-78
2021/12/30 09:38:15;;;;;;;29.88;11.85;;;;;;;;;;4902863;29;20435;-81
2021/12/30 09:40:41;;;;;;;27.43;11.90;;;;;;;;;;4891629;29;20442;-81
2021/12/30 09:43:09;;;;;;;27.52;12.27;;;;;;;;;;4892756;29;20521;-81
2021/12/30 09:45:37;;;;;;;27.58;12.02;;;;;;;;;;4875281;29;20435;-81
2021/12/30 09:48:05;;;;;;;30.40;12.88;;;;;;;;;;4886834;29;20440;-80
2021/12/30 09:50:51;;;;;;;31.67;12.55;;;12.10;99.90;;;;;;4895759;29;20488;-81
2021/12/30 09:53:18;;;;;;;30.50;13.00;;;;;;;;;;4894451;29;20493;-81
2021/12/30 09:55:44;;;;;;;32.80;13.02;;;;;;;;;;4898241;29;20532;-80
2021/12/30 09:58:11;;;;;;;30.67;13.07;;;;;;;;;;4899298;29;20453;-79
2021/12/30 10:00:37;;;;;;;35.75;14.48;;;;;;;;;;4892395;29;20504;-80
2021/12/30 10:03:03;;;;;;;28.67;12.80;;;;;;;;;;4907264;29;20525;-80
2021/12/30 10:05:31;;;;;;;30.33;11.68;;;;;;;;;;4898495;29;20437;-80
2021/12/30 10:08:16;;;;;;;30.90;11.98;;;;;;;;;;4912007;29;20901;-80
2021/12/30 10:10:47;;;;;;;28.73;11.17;;;;;;;;;;4901063;29;20487;-79
2021/12/30 10:13:34;;;;;;;34.03;11.90;;;;;;;;;;4893968;29;20464;-79
2021/12/30 10:16:05;;;;;;;32.50;11.18;;;;;;;;;;4886373;29;20533;-79
2021/12/30 10:18:50;;;;;;;27.63;11.07;;;;;;;;;;4897443;29;20430;-79
2021/12/30 10:21:18;;;;;;;32.95;10.60;;;;;;;;;;4898500;29;20894;-79
2021/12/30 10:23:46;;;;;;;33.90;11.20;;;;;;;;;;4885147;29;20447;-79
2021/12/30 10:26:12;;;;;;;27.58;10.43;;;;;;;;;;4897203;29;20951;-79
2021/12/30 10:28:40;;;;;;;26.80;11.30;;;;;;;;;;4895564;29;20952;-79
2021/12/30 10:31:12;;;;;;;30.53;10.73;;;;;;;;;;4891665;29;20429;-79
2021/12/30 10:33:46;;;;;;;32.05;10.57;;;;;;;;;;4879425;29;20426;-79
2021/12/30 10:36:16;;;;;;;33.37;11.37;;;;;;;;;;4893174;29;20523;-78
2021/12/30 10:38:43;;;;;;;31.70;10.88;;;;;;;;;;4907167;29;20436;-78
2021/12/30 10:41:09;;;;;;;35.95;11.00;;;;;;;;;;4909707;29;20433;-79
2021/12/30 10:46:08;;;;;;;39.97;12.27;;;;;;;;;;4882113;29;20446;-77
2021/12/30 10:48:34;;;;;;;40.75;11.82;;;;;;;;;;4895204;29;20432;-77
2021/12/30 10:51:14;;;;;;;41.45;13.05;;;;;;;;;;4894988;29;20520;-78
2021/12/30 10:53:41;;;;;;;36.88;11.43;;;;;;;;;;4889515;29;20453;-76
2021/12/30 10:56:24;;;;;;;37.08;11.63;;;;;;;;;;4906462;29;20449;-79
2021/12/30 10:58:50;;;;;;;44.15;11.18;;;;;;;;;;4894001;29;20444;-79
2021/12/30 11:01:17;;;;;;;48.15;11.88;;;;;;;;;;4894900;29;20464;-77
2021/12/30 11:03:54;;;;;;;37.40;11.65;;;;;;;;;;4890120;29;20876;-76
2021/12/30 11:06:20;;;;;;;38.80;11.17;;;;;;;;;;4880005;29;20433;-76
2021/12/30 11:08:49;;;;;;;41.80;12.35;;;;;;;;;;4888817;29;21173;-76
2021/12/30 11:11:28;;;;;;;45.90;11.90;;;;;;;;;;4883577;29;20419;-76
2021/12/30 11:14:05;;;;;;;45.65;11.77;;;;;;;;;;4865274;29;20770;-76
2021/12/30 11:16:31;;;;;;;48.97;12.10;;;;;;;;;;4882548;29;20760;-77
2021/12/30 11:18:58;;;;;;;50.08;12.75;;;;;;;;;;4876735;29;20439;-77
2021/12/30 11:21:37;;;;;;;50.97;12.55;;;;;;;;;;4875990;29;20484;-77
2021/12/30 11:24:04;;;;;;;48.78;13.27;;;;;;;;;;4878531;29;20835;-77
2021/12/30 11:26:31;;;;;;;43.15;11.70;;;;;;;;;;4881203;29;20419;-77
2021/12/30 11:28:57;;;;;;;53.33;12.35;;;;;;;;;;4880724;29;20413;-76
2021/12/30 11:31:24;;;;;;;46.47;11.27;;;;;;;;;;4881038;29;20522;-76
2021/12/30 11:33:50;;;;;;;44.70;11.85;;;;;;;;;;4882057;29;20472;-77
2021/12/30 11:36:19;;;;;;;50.33;11.85;;;;;;;;;;4896068;29;20406;-77
2021/12/30 11:38:45;;;;;;;44.83;11.25;;;;;;;;;;4877231;29;20788;-77
2021/12/30 11:41:22;;;;;;;46.05;11.35;;;;;;;;;;4877584;29;20599;-76
2021/12/30 11:43:49;;;;;;;47.00;10.88;;;;;;;;;;4880046;29;20453;-76
2021/12/30 11:46:34;;;;;;;44.63;10.80;;;;;;;;;;4880249;29;20445;-76
2021/12/30 11:49:01;;;;;;;41.33;10.88;;;;;;;;;;4876363;29;20506;-76
2021/12/30 11:51:44;;;;;;;44.17;10.60;;;12.10;99.90;;;;;;4878471;29;20442;-76
2021/12/30 11:54:29;;;;;;;45.95;10.13;;;;;;;;;;4881466;29;20480;-76
2021/12/30 11:57:14;;;;;;;39.65;9.00;;;;;;;;;;4879096;29;20446;-76
2021/12/30 11:59:40;;;;;;;47.72;10.05;;;;;;;;;;4879989;29;20445;-76
2021/12/30 12:02:24;;;;;;;43.08;9.77;;;;;;;;;;4881622;29;21040;-77
2021/12/30 12:04:51;;;;;;;41.13;9.52;;;;;;;;;;4884542;29;20439;-76
2021/12/30 12:07:17;;;;;;;40.30;9.52;;;;;;;;;;4875645;29;20434;-76
2021/12/30 12:09:43;;;;;;;37.53;9.07;;;;;;;;;;4877785;29;20426;-76
2021/12/30 12:12:14;;;;;;;39.85;8.52;;;;;;;;;;4880125;29;20437;-77
2021/12/30 12:14:46;;;;;;;42.03;9.20;;;;;;;;;;4879215;29;20429;-76
2021/12/30 12:17:18;;;;;;;34.73;8.40;;;;;;;;;;4898995;29;20481;-76
2021/12/30 12:19:49;;;;;;;39.78;9.63;;;;;;;;;;4899622;29;20453;-75
2021/12/30 12:22:18;;;;;;;38.25;8.48;;;;;;;;;;4882768;29;20484;-76
2021/12/30 12:24:46;;;;;;;33.58;8.55;;;;;;;;;;4882993;29;20525;-76
2021/12/30 12:27:30;;;;;;;38.35;8.82;;;12.10;99.90;;;;;;4888210;29;20441;-76
2021/12/30 12:29:57;;;;;;;37.33;8.88;;;;;;;;;;4888808;29;20511;-77
2021/12/30 12:32:32;;;;;;;36.80;9.15;;;;;;;;;;4889554;29;20417;-77
2021/12/30 12:34:59;;;;;;;34.72;8.35;;;;;;;;;;4886713;29;20426;-77
2021/12/30 12:37:39;;;;;;;37.20;8.95;;;;;;;;;;4886241;29;20782;-77
2021/12/30 12:40:06;;;;;;;45.30;9.27;;;;;;;;;;4882810;29;20446;-77
2021/12/30 12:42:41;;;;;;;39.38;8.02;;;;;;;;;;4882267;29;20434;-77
2021/12/30 12:45:26;;;;;;;35.08;8.32;;;;;;;;;;4885926;29;20503;-77
2021/12/30 12:48:10;;;;;;;36.00;9.53;;;;;;;;;;4879749;29;20435;-76
2021/12/30 12:50:38;;;;;;;41.57;8.90;;;;;;;;;;4880888;29;20417;-77
2021/12/30 12:53:24;;;;;;;40.10;9.45;;;12.40;99.90;;;;;;4881742;29;20442;-77
2021/12/30 12:56:00;;;;;;;40.70;9.40;;;;;;;;;;4897107;29;20519;-77
2021/12/30 12:58:28;;;;;;;38.40;9.32;;;;;;;;;;4881637;29;20808;-76
2021/12/30 13:00:59;;;;;;;38.40;9.50;;;;;;;;;;4882548;29;20430;-76
2021/12/30 13:03:25;;;;;;;37.28;10.05;;;;;;;;;;4883660;29;20457;-76
2021/12/30 13:06:03;;;;;;;43.42;9.90;;;;;;;;;;4900535;29;20434;-76
2021/12/30 13:08:30;;;;;;;41.08;9.73;;;;;;;;;;4892641;29;20435;-76
2021/12/30 13:10:57;;;;;;;35.20;9.27;;;;;;;;;;4885031;29;20479;-76
2021/12/30 13:13:42;;;;;;;40.67;10.03;;;;;;;;;;4893258;29;20899;-77
2021/12/30 13:16:21;;;;;;;40.70;9.03;;;;;;;;;;4905279;29;20476;-76
2021/12/30 13:19:01;;;;;;;39.17;10.15;;;;;;;;;;4886073;29;20419;-76
2021/12/30 13:21:27;;;;;;;43.20;10.43;;;;;;;;;;4896704;29;20432;-75
2021/12/30 13:23:53;;;;;;;43.85;10.95;;;;;;;;;;4892417;29;20429;-74
2021/12/30 13:26:19;;;;;;;42.75;10.40;;;;;;;;;;4892823;29;20521;-77
2021/12/30 13:28:47;;;;;;;46.72;10.90;;;;;;;;;;4900456;29;20492;-77
2021/12/30 13:31:17;;;;;;;45.08;10.88;;;;;;;;;;4899226;29;20925;-77
2021/12/30 13:33:57;;;;;;;52.17;10.77;;;12.10;99.90;;;;;;4891211;29;20483;-78
2021/12/30 13:36:24;;;;;;;42.00;9.80;;;;;;;;;;4896125;29;20449;-76
2021/12/30 13:38:50;;;;;;;38.15;10.65;;;;;;;;;;4880482;29;20971;-77
2021/12/30 13:41:19;;;;;;;47.30;11.13;;;;;;;;;;4904602;29;20428;-76
2021/12/30 13:43:45;;;;;;;51.35;11.75;;;;;;;;;;4896258;29;20433;-76
2021/12/30 13:46:12;;;;;;;43.35;10.75;;;;;;;;;;4880505;29;20508;-76
2021/12/30 13:48:41;;;;;;;44.97;11.18;;;12.10;99.90;;;;;;4895745;29;20421;-77
2021/12/30 13:51:26;;;;;;;45.97;10.68;;;;;;;;;;4888381;29;20872;-77
2021/12/30 13:53:53;;;;;;;40.13;10.07;;;;;;;;;;4909017;29;20413;-77
2021/12/30 13:56:24;;;;;;;41.50;11.63;;;;;;;;;;4891761;29;20426;-77
2021/12/30 13:58:51;;;;;;;41.67;10.32;;;;;;;;;;4892882;29;20421;-76
2021/12/30 14:01:18;;;;;;;42.67;10.67;;;;;;;;;;4900469;29;20496;-77
2021/12/30 14:03:46;;;;;;;49.08;10.80;;;;;;;;;;4887560;29;20417;-77
2021/12/30 14:06:13;;;;;;;45.67;11.03;;;;;;;;;;4897620;29;20421;-78
2021/12/30 14:08:48;;;;;;;43.75;11.57;;;;;;;;;;4890996;29;20837;-77
2021/12/30 14:11:14;;;;;;;43.55;11.50;;;;;;;;;;4885864;29;20430;-77
2021/12/30 14:13:45;;;;;;;41.30;11.30;;;;;;;;;;4910335;29;20424;-77
2021/12/30 14:16:26;;;;;;;47.38;11.57;;;12.20;99.90;;;;;;4895207;29;20438;-77
2021/12/30 14:18:57;;;;;;;41.70;11.25;;;12.50;99.90;;;;;;4901885;29;20426;-77
2021/12/30 14:21:24;;;;;;;49.47;11.02;;;;;;;;;;4906483;29;20502;-77
2021/12/30 14:23:53;;;;;;;38.53;9.77;;;12.50;99.90;;;;;;4893391;29;20515;-77